createdAt,value
2023-04-12T00:00:15.136Z,22.93
2023-04-12T00:01:15.153Z,22.93
2023-04-12T00:02:15.216Z,22.93
2023-04-12T00:03:15.260Z,22.93
2023-04-12T00:04:15.319Z,22.94
2023-04-12T00:05:15.240Z,22.94
2023-04-12T00:06:15.208Z,22.93
2023-04-12T00:07:15.217Z,22.91
2023-04-12T00:08:15.241Z,22.94
2023-04-12T00:09:15.252Z,22.93
2023-04-12T00:10:15.270Z,22.93
2023-04-12T00:11:15.283Z,22.93
2023-04-12T00:12:15.294Z,22.91
2023-04-12T00:13:15.307Z,22.89
2023-04-12T00:14:15.329Z,22.93
2023-04-12T00:15:15.331Z,22.93
2023-04-12T00:16:15.396Z,22.93
2023-04-12T00:17:15.376Z,22.91
2023-04-12T00:18:16.289Z,22.91
2023-04-12T00:19:15.394Z,22.93
2023-04-12T00:20:15.413Z,22.91
2023-04-12T00:21:15.420Z,22.90
2023-04-12T00:22:15.439Z,22.93
2023-04-12T00:23:15.447Z,22.93
2023-04-12T00:24:15.454Z,22.91
2023-04-12T00:25:15.482Z,22.93
2023-04-12T00:26:15.495Z,22.93
2023-04-12T00:27:15.501Z,22.90
2023-04-12T00:28:15.524Z,22.93
2023-04-12T00:29:15.534Z,22.91
2023-04-12T00:30:15.547Z,22.91
2023-04-12T00:31:15.593Z,22.93
2023-04-12T00:32:15.581Z,22.91
2023-04-12T00:33:15.590Z,22.91
2023-04-12T00:34:15.602Z,22.91
2023-04-12T00:35:15.610Z,22.94
2023-04-12T00:36:15.954Z,22.91
2023-04-12T00:37:15.641Z,22.91
2023-04-12T00:38:15.663Z,22.91
2023-04-12T00:39:15.677Z,22.90
2023-04-12T00:40:15.698Z,22.91
2023-04-12T00:41:15.710Z,22.93
2023-04-12T00:42:15.719Z,22.94
2023-04-12T00:43:15.861Z,22.91
2023-04-12T00:44:15.760Z,22.93
2023-04-12T00:45:15.771Z,22.91
2023-04-12T00:46:15.803Z,22.94
2023-04-12T00:47:15.806Z,22.91
2023-04-12T00:48:15.817Z,22.90
2023-04-12T00:49:15.819Z,22.90
2023-04-12T00:50:15.838Z,22.91
2023-04-12T00:51:15.862Z,22.91
2023-04-12T00:52:15.923Z,22.90
2023-04-12T00:53:15.914Z,22.93
2023-04-12T00:54:16.107Z,22.91
2023-04-12T00:55:15.938Z,22.89
2023-04-12T00:56:15.949Z,22.91
2023-04-12T00:57:15.970Z,22.91
2023-04-12T00:58:15.980Z,22.91
2023-04-12T00:59:15.994Z,22.91
2023-04-12T01:00:16.008Z,22.91
2023-04-12T01:01:16.118Z,22.93
2023-04-12T01:02:16.127Z,22.93
2023-04-12T01:03:16.243Z,22.94
2023-04-12T01:04:16.118Z,22.94
2023-04-12T01:05:16.066Z,22.90
2023-04-12T01:06:16.088Z,22.93
2023-04-12T01:07:16.094Z,22.94
2023-04-12T01:08:16.108Z,22.93
2023-04-12T01:09:16.115Z,22.91
2023-04-12T01:10:16.124Z,22.94
2023-04-12T01:11:16.139Z,22.93
2023-04-12T01:12:16.178Z,22.93
2023-04-12T01:13:16.171Z,22.93
2023-04-12T01:14:16.178Z,22.93
2023-04-12T01:15:16.183Z,22.94
2023-04-12T01:16:16.262Z,22.96
2023-04-12T01:17:16.211Z,22.96
2023-04-12T01:18:16.227Z,22.93
2023-04-12T01:19:16.240Z,22.94
2023-04-12T01:20:16.262Z,22.94
2023-04-12T01:21:16.272Z,22.96
2023-04-12T01:22:16.278Z,22.94
2023-04-12T01:23:16.308Z,22.94
2023-04-12T01:24:16.310Z,22.96
2023-04-12T01:25:16.342Z,22.94
2023-04-12T01:26:16.334Z,22.93
2023-04-12T01:27:16.348Z,22.93
2023-04-12T01:28:16.372Z,22.94
2023-04-12T01:29:16.389Z,22.94
2023-04-12T01:30:16.394Z,22.93
2023-04-12T01:31:16.449Z,22.94
2023-04-12T01:32:16.429Z,22.93
2023-04-12T01:33:16.442Z,22.94
2023-04-12T01:34:16.455Z,22.93
2023-04-12T01:35:16.458Z,22.94
2023-04-12T01:36:16.467Z,22.93
2023-04-12T01:37:16.475Z,22.89
2023-04-12T01:38:16.489Z,22.93
2023-04-12T01:39:16.494Z,22.93
2023-04-12T01:40:16.510Z,22.94
2023-04-12T01:41:16.514Z,22.90
2023-04-12T01:42:16.526Z,22.91
2023-04-12T01:43:16.537Z,22.91
2023-04-12T01:44:16.549Z,22.93
2023-04-12T01:45:16.578Z,22.90
2023-04-12T01:46:16.620Z,22.91
2023-04-12T01:47:16.588Z,22.90
2023-04-12T01:48:16.611Z,22.91
2023-04-12T01:49:16.638Z,22.91
2023-04-12T01:50:16.649Z,22.90
2023-04-12T01:51:16.635Z,22.91
2023-04-12T01:52:16.635Z,22.91
2023-04-12T01:53:16.649Z,22.94
2023-04-12T01:54:16.654Z,22.93
2023-04-12T01:55:16.669Z,22.93
2023-04-12T01:56:16.681Z,22.93
2023-04-12T01:57:16.686Z,22.91
2023-04-12T01:58:16.702Z,22.91
2023-04-12T01:59:16.719Z,22.93
2023-04-12T02:00:16.708Z,22.93
2023-04-12T02:01:16.768Z,22.94
2023-04-12T02:02:16.761Z,22.93
2023-04-12T02:03:16.887Z,22.93
2023-04-12T02:04:16.784Z,22.93
2023-04-12T02:05:16.740Z,22.91
2023-04-12T02:06:16.736Z,22.91
2023-04-12T02:07:16.754Z,22.93
2023-04-12T02:08:16.766Z,22.91
2023-04-12T02:09:16.760Z,22.93
2023-04-12T02:10:16.794Z,22.93
2023-04-12T02:11:16.822Z,22.96
2023-04-12T02:12:16.798Z,22.94
2023-04-12T02:13:16.798Z,22.93
2023-04-12T02:14:16.823Z,22.93
2023-04-12T02:15:16.821Z,22.93
2023-04-12T02:16:16.893Z,22.93
2023-04-12T02:17:16.858Z,22.91
2023-04-12T02:18:16.880Z,22.90
2023-04-12T02:19:16.880Z,22.91
2023-04-12T02:20:16.890Z,22.91
2023-04-12T02:21:16.912Z,22.96
2023-04-12T02:22:16.909Z,22.91
2023-04-12T02:23:16.923Z,22.93
2023-04-12T02:24:16.934Z,22.94
2023-04-12T02:25:16.962Z,22.90
2023-04-12T02:26:16.953Z,22.93
2023-04-12T02:27:16.962Z,22.91
2023-04-12T02:28:16.975Z,22.91
2023-04-12T02:29:16.993Z,22.94
2023-04-12T02:30:17.006Z,22.90
2023-04-12T02:31:17.163Z,22.91
2023-04-12T02:32:17.004Z,22.93
2023-04-12T02:33:16.988Z,22.93
2023-04-12T02:34:17.001Z,22.93
2023-04-12T02:35:17.014Z,22.93
2023-04-12T02:36:17.011Z,22.91
2023-04-12T02:37:17.009Z,22.91
2023-04-12T02:38:17.008Z,22.91
2023-04-12T02:39:17.014Z,22.93
2023-04-12T02:40:17.012Z,22.91
2023-04-12T02:41:17.011Z,22.93
2023-04-12T02:42:17.018Z,22.91
2023-04-12T02:43:17.032Z,22.91
2023-04-12T02:44:17.048Z,22.94
2023-04-12T02:45:17.042Z,22.94
2023-04-12T02:46:17.093Z,22.93
2023-04-12T02:47:17.047Z,22.90
2023-04-12T02:48:17.050Z,22.93
2023-04-12T02:49:17.090Z,22.91
2023-04-12T02:50:17.068Z,22.91
2023-04-12T02:51:17.069Z,22.90
2023-04-12T02:52:17.087Z,22.91
2023-04-12T02:53:17.078Z,22.91
2023-04-12T02:54:17.105Z,22.91
2023-04-12T02:55:17.108Z,22.91
2023-04-12T02:56:17.112Z,22.89
2023-04-12T02:57:17.120Z,22.91
2023-04-12T02:58:17.130Z,22.91
2023-04-12T02:59:17.141Z,22.90
2023-04-12T03:00:17.160Z,22.93
2023-04-12T03:01:17.184Z,22.90
2023-04-12T03:02:17.248Z,22.90
2023-04-12T03:03:17.325Z,22.90
2023-04-12T03:04:17.290Z,22.91
2023-04-12T03:05:17.209Z,22.93
2023-04-12T03:06:17.220Z,22.91
2023-04-12T03:07:17.242Z,22.93
2023-04-12T03:08:17.265Z,22.91
2023-04-12T03:09:17.247Z,22.90
2023-04-12T03:10:17.258Z,22.91
2023-04-12T03:11:17.280Z,22.91
2023-04-12T03:12:17.308Z,22.93
2023-04-12T03:13:17.284Z,22.93
2023-04-12T03:14:17.290Z,22.90
2023-04-12T03:15:17.285Z,22.90
2023-04-12T03:16:17.437Z,22.91
2023-04-12T03:17:17.318Z,22.89
2023-04-12T03:18:17.332Z,22.90
2023-04-12T03:19:17.342Z,22.90
2023-04-12T03:20:17.384Z,22.89
2023-04-12T03:21:17.350Z,22.91
2023-04-12T03:22:17.381Z,22.90
2023-04-12T03:23:17.389Z,22.91
2023-04-12T03:24:17.424Z,22.89
2023-04-12T03:25:17.444Z,22.90
2023-04-12T03:26:17.445Z,22.90
2023-04-12T03:27:17.467Z,22.91
2023-04-12T03:28:17.467Z,22.90
2023-04-12T03:29:17.494Z,22.90
2023-04-12T03:30:17.498Z,22.89
2023-04-12T03:31:17.522Z,22.85
2023-04-12T03:32:17.529Z,22.89
2023-04-12T03:33:17.526Z,22.87
2023-04-12T03:34:17.540Z,22.89
2023-04-12T03:35:17.597Z,22.87
2023-04-12T03:36:17.636Z,22.87
2023-04-12T03:37:17.611Z,22.87
2023-04-12T03:38:17.618Z,22.89
2023-04-12T03:39:17.619Z,22.87
2023-04-12T03:40:17.621Z,22.87
2023-04-12T03:41:17.638Z,22.89
2023-04-12T03:42:31.718Z,22.87
2023-04-12T03:43:18.610Z,22.87
2023-04-12T03:44:17.555Z,22.86
2023-04-12T03:45:17.496Z,22.87
2023-04-12T03:46:17.497Z,22.87
2023-04-12T03:47:17.400Z,22.87
2023-04-12T03:48:17.343Z,22.89
2023-04-12T03:49:17.297Z,22.86
2023-04-12T03:50:17.240Z,22.87
2023-04-12T03:51:17.195Z,22.89
2023-04-12T03:52:17.184Z,22.89
2023-04-12T03:53:17.209Z,22.86
2023-04-12T03:54:17.228Z,22.86
2023-04-12T03:55:17.239Z,22.87
2023-04-12T03:56:17.268Z,22.87
2023-04-12T03:57:17.264Z,22.86
2023-04-12T03:58:17.285Z,22.86
2023-04-12T03:59:17.306Z,22.89
2023-04-12T04:00:17.318Z,22.87
2023-04-12T04:01:17.330Z,22.89
2023-04-12T04:02:17.375Z,22.87
2023-04-12T04:03:17.435Z,22.87
2023-04-12T04:04:17.664Z,22.86
2023-04-12T04:05:17.439Z,22.87
2023-04-12T04:06:17.383Z,22.86
2023-04-12T04:07:17.378Z,22.87
2023-04-12T04:08:17.368Z,22.87
2023-04-12T04:09:17.370Z,22.87
2023-04-12T04:10:17.388Z,22.86
2023-04-12T04:11:17.371Z,22.87
2023-04-12T04:12:17.369Z,22.86
2023-04-12T04:13:17.389Z,22.86
2023-04-12T04:14:17.399Z,22.87
2023-04-12T04:15:17.405Z,22.87
2023-04-12T04:16:17.483Z,22.87
2023-04-12T04:17:17.451Z,22.86
2023-04-12T04:18:17.459Z,22.86
2023-04-12T04:19:17.455Z,22.87
2023-04-12T04:20:17.470Z,22.87
2023-04-12T04:21:17.560Z,22.86
2023-04-12T04:22:17.490Z,22.87
2023-04-12T04:23:17.518Z,22.87
2023-04-12T04:24:17.514Z,22.85
2023-04-12T04:25:17.526Z,22.89
2023-04-12T04:26:17.537Z,22.87
2023-04-12T04:27:17.580Z,22.87
2023-04-12T04:28:17.560Z,22.86
2023-04-12T04:29:17.563Z,22.87
2023-04-12T04:30:17.573Z,22.89
2023-04-12T04:31:17.842Z,22.86
2023-04-12T04:32:17.558Z,22.89
2023-04-12T04:33:17.646Z,22.87
2023-04-12T04:34:17.597Z,22.86
2023-04-12T04:35:17.665Z,22.86
2023-04-12T04:36:17.713Z,22.87
2023-04-12T04:37:17.642Z,22.87
2023-04-12T04:38:17.659Z,22.86
2023-04-12T04:39:17.694Z,22.86
2023-04-12T04:40:17.695Z,22.89
2023-04-12T04:41:17.712Z,22.86
2023-04-12T04:42:17.733Z,22.90
2023-04-12T04:43:17.771Z,22.89
2023-04-12T04:44:17.765Z,22.87
2023-04-12T04:45:17.780Z,22.87
2023-04-12T04:46:17.857Z,22.87
2023-04-12T04:47:17.841Z,22.89
2023-04-12T04:48:17.832Z,22.87
2023-04-12T04:49:17.854Z,22.87
2023-04-12T04:50:17.877Z,22.86
2023-04-12T04:51:17.894Z,22.89
2023-04-12T04:52:17.924Z,22.87
2023-04-12T04:53:17.940Z,22.86
2023-04-12T04:54:17.949Z,22.89
2023-04-12T04:55:18.004Z,22.89
2023-04-12T04:56:17.998Z,22.89
2023-04-12T04:57:18.002Z,22.87
2023-04-12T04:58:18.015Z,22.87
2023-04-12T04:59:18.021Z,22.86
2023-04-12T05:00:19.344Z,22.87
2023-04-12T05:01:18.087Z,22.89
2023-04-12T05:02:18.154Z,22.89
2023-04-12T05:03:18.200Z,22.86
2023-04-12T05:04:18.174Z,22.86
2023-04-12T05:05:18.136Z,22.82
2023-04-12T05:06:18.162Z,22.83
2023-04-12T05:07:18.161Z,22.80
2023-04-12T05:08:18.262Z,22.85
2023-04-12T05:09:18.192Z,22.83
2023-04-12T05:10:18.236Z,22.83
2023-04-12T05:11:18.265Z,22.83
2023-04-12T05:12:18.233Z,22.80
2023-04-12T05:13:18.223Z,22.71
2023-04-12T05:14:18.233Z,22.74
2023-04-12T05:15:18.255Z,22.70
2023-04-12T05:16:18.382Z,22.66
2023-04-12T05:17:18.247Z,22.63
2023-04-12T05:18:18.246Z,22.64
2023-04-12T05:19:18.255Z,22.66
2023-04-12T05:20:18.228Z,22.67
2023-04-12T05:21:18.225Z,22.66
2023-04-12T05:22:19.457Z,22.60
2023-04-12T05:23:18.218Z,22.63
2023-04-12T05:24:18.152Z,22.69
2023-04-12T05:25:18.131Z,22.63
2023-04-12T05:26:18.118Z,22.67
2023-04-12T05:27:18.103Z,22.53
2023-04-12T05:28:18.112Z,22.59
2023-04-12T05:29:18.075Z,22.63
2023-04-12T05:30:18.049Z,22.69
2023-04-12T05:31:18.082Z,22.73
2023-04-12T05:32:19.003Z,22.79
2023-04-12T05:33:18.942Z,22.80
2023-04-12T05:34:17.888Z,22.80
2023-04-12T05:35:17.947Z,22.85
2023-04-12T05:36:17.792Z,22.86
2023-04-12T05:37:17.751Z,22.89
2023-04-12T05:38:17.696Z,22.89
2023-04-12T05:39:20.040Z,22.87
2023-04-12T05:40:17.600Z,22.91
2023-04-12T05:41:17.532Z,22.87
2023-04-12T05:42:17.493Z,22.89
2023-04-12T05:43:17.432Z,22.90
2023-04-12T05:44:17.383Z,22.90
2023-04-12T05:45:17.344Z,22.93
2023-04-12T05:46:17.290Z,22.93
2023-04-12T05:47:17.261Z,22.93
2023-04-12T05:48:17.193Z,22.93
2023-04-12T05:49:17.145Z,22.91
2023-04-12T05:50:17.109Z,22.93
2023-04-12T05:51:19.524Z,22.93
2023-04-12T05:52:18.004Z,22.91
2023-04-12T05:53:16.940Z,22.90
2023-04-12T05:54:16.894Z,22.93
2023-04-12T05:55:16.841Z,22.89
2023-04-12T05:56:16.789Z,22.90
2023-04-12T05:57:16.766Z,22.91
2023-04-12T05:58:16.728Z,22.90
2023-04-12T05:59:16.657Z,22.91
2023-04-12T06:00:16.634Z,22.90
2023-04-12T06:01:16.788Z,22.90
2023-04-12T06:02:16.749Z,22.91
2023-04-12T06:03:16.755Z,22.89
2023-04-12T06:04:16.894Z,22.93
2023-04-12T06:05:16.820Z,22.91
2023-04-12T06:06:16.712Z,22.89
2023-04-12T06:07:16.724Z,22.87
2023-04-12T06:08:16.752Z,22.87
2023-04-12T06:09:16.751Z,22.89
2023-04-12T06:10:16.770Z,22.87
2023-04-12T06:11:16.801Z,22.86
2023-04-12T06:12:17.449Z,22.87
2023-04-12T06:13:16.838Z,22.87
2023-04-12T06:14:16.846Z,22.87
2023-04-12T06:15:16.872Z,22.86
2023-04-12T06:16:16.945Z,22.90
2023-04-12T06:17:16.929Z,22.90
2023-04-12T06:18:16.915Z,22.89
2023-04-12T06:19:17.008Z,22.87
2023-04-12T06:20:16.937Z,22.89
2023-04-12T06:21:16.956Z,22.89
2023-04-12T06:22:16.997Z,22.83
2023-04-12T06:23:17.473Z,22.70
2023-04-12T06:24:16.989Z,22.76
2023-04-12T06:25:16.956Z,22.73
2023-04-12T06:26:18.450Z,22.73
2023-04-12T06:27:16.896Z,22.71
2023-04-12T06:28:16.999Z,22.79
2023-04-12T06:29:16.879Z,22.80
2023-04-12T06:30:17.465Z,22.82
2023-04-12T06:31:16.955Z,22.85
2023-04-12T06:32:16.973Z,22.86
2023-04-12T06:33:17.477Z,22.87
2023-04-12T06:34:16.968Z,22.87
2023-04-12T06:35:16.963Z,22.87
2023-04-12T06:36:17.050Z,22.91
2023-04-12T06:37:16.996Z,22.91
2023-04-12T06:38:17.005Z,22.91
2023-04-12T06:39:17.117Z,22.90
2023-04-12T06:40:17.018Z,22.91
2023-04-12T06:41:17.029Z,22.90
2023-04-12T06:42:17.064Z,22.90
2023-04-12T06:43:17.062Z,22.91
2023-04-12T06:44:17.087Z,22.90
2023-04-12T06:45:17.075Z,22.91
2023-04-12T06:46:17.181Z,22.90
2023-04-12T06:47:17.102Z,22.91
2023-04-12T06:48:17.113Z,22.90
2023-04-12T06:49:17.140Z,22.91
2023-04-12T06:50:17.145Z,22.91
2023-04-12T06:51:17.186Z,22.91
2023-04-12T06:52:17.209Z,22.91
2023-04-12T06:53:17.180Z,22.91
2023-04-12T06:54:17.190Z,22.90
2023-04-12T06:55:17.210Z,22.90
2023-04-12T06:56:18.584Z,22.93
2023-04-12T06:57:17.233Z,22.90
2023-04-12T06:58:18.001Z,22.87
2023-04-12T06:59:17.270Z,22.90
2023-04-12T07:00:17.283Z,22.90
2023-04-12T07:01:17.343Z,22.91
2023-04-12T07:02:17.441Z,22.89
2023-04-12T07:03:17.356Z,22.90
2023-04-12T07:04:17.429Z,22.87
2023-04-12T07:05:17.376Z,22.89
2023-04-12T07:06:24.930Z,22.89
2023-04-12T07:07:17.313Z,22.89
2023-04-12T07:08:17.269Z,22.87
2023-04-12T07:09:17.227Z,22.86
2023-04-12T07:10:17.224Z,22.89
2023-04-12T07:11:21.349Z,22.82
2023-04-12T07:12:18.094Z,22.86
2023-04-12T07:13:17.040Z,22.87
2023-04-12T07:14:17.057Z,22.91
2023-04-12T07:15:16.946Z,22.91
2023-04-12T07:16:17.072Z,22.89
2023-04-12T07:17:16.864Z,22.90
2023-04-12T07:18:16.830Z,22.93
2023-04-12T07:19:16.774Z,22.89
2023-04-12T07:20:16.737Z,22.76
2023-04-12T07:21:16.702Z,22.85
2023-04-12T07:22:16.712Z,22.90
2023-04-12T07:23:16.716Z,22.96
2023-04-12T07:24:16.736Z,22.98
2023-04-12T07:25:16.744Z,23.03
2023-04-12T07:26:16.768Z,23.04
2023-04-12T07:27:16.785Z,23.04
2023-04-12T07:28:16.788Z,23.03
2023-04-12T07:29:16.788Z,23.03
2023-04-12T07:30:16.798Z,23.03
2023-04-12T07:31:16.799Z,23.01
2023-04-12T07:32:16.749Z,22.98
2023-04-12T07:33:19.966Z,22.97
2023-04-12T07:34:17.789Z,22.98
2023-04-12T07:35:16.604Z,22.97
2023-04-12T07:36:16.618Z,22.97
2023-04-12T07:37:16.511Z,22.93
2023-04-12T07:38:17.067Z,22.94
2023-04-12T07:39:16.441Z,22.94
2023-04-12T07:40:16.348Z,22.96
2023-04-12T07:41:16.298Z,22.93
2023-04-12T07:42:16.244Z,22.91
2023-04-12T07:43:16.216Z,22.89
2023-04-12T07:44:16.143Z,22.89
2023-04-12T07:45:16.129Z,22.90
2023-04-12T07:46:16.094Z,22.89
2023-04-12T07:47:16.009Z,22.89
2023-04-12T07:48:17.514Z,22.89
2023-04-12T07:49:15.939Z,22.87
2023-04-12T07:50:15.995Z,22.89
2023-04-12T07:51:16.012Z,22.86
2023-04-12T07:52:15.997Z,22.86
2023-04-12T07:53:16.022Z,22.87
2023-04-12T07:54:16.036Z,22.86
2023-04-12T07:55:16.070Z,22.86
2023-04-12T07:56:16.076Z,22.85
2023-04-12T07:57:16.101Z,22.87
2023-04-12T07:58:16.108Z,22.87
2023-04-12T07:59:16.119Z,22.86
2023-04-12T08:00:16.136Z,22.89
2023-04-12T08:01:16.154Z,22.89
2023-04-12T08:02:16.287Z,22.87
2023-04-12T08:03:16.359Z,22.86
2023-04-12T08:04:16.642Z,22.87
2023-04-12T08:05:17.049Z,22.86
2023-04-12T08:06:16.361Z,22.89
2023-04-12T08:07:16.226Z,22.86
2023-04-12T08:08:16.248Z,22.87
2023-04-12T08:09:16.291Z,22.87
2023-04-12T08:10:16.270Z,22.80
2023-04-12T08:11:16.283Z,22.76
2023-04-12T08:12:16.283Z,22.77
2023-04-12T08:13:16.247Z,22.80
2023-04-12T08:14:16.209Z,22.83
2023-04-12T08:15:17.143Z,22.83
2023-04-12T08:16:17.080Z,22.89
2023-04-12T08:17:17.014Z,22.77
2023-04-12T08:18:16.002Z,22.87
2023-04-12T08:19:15.964Z,22.96
2023-04-12T08:20:16.316Z,22.97
2023-04-12T08:21:15.873Z,22.93
2023-04-12T08:22:15.831Z,22.94
2023-04-12T08:23:15.787Z,22.93
2023-04-12T08:24:15.767Z,22.83
2023-04-12T08:25:15.751Z,22.83
2023-04-12T08:26:15.702Z,22.83
2023-04-12T08:27:15.683Z,22.80
2023-04-12T08:28:17.479Z,22.67
2023-04-12T08:29:16.529Z,22.58
2023-04-12T08:30:15.599Z,22.59
2023-04-12T08:31:15.611Z,22.66
2023-04-12T08:32:15.720Z,22.69
2023-04-12T08:33:15.492Z,22.69
2023-04-12T08:34:15.471Z,22.66
2023-04-12T08:35:15.492Z,22.70
2023-04-12T08:36:15.494Z,22.71
2023-04-12T08:37:15.488Z,22.74
2023-04-12T08:38:15.519Z,22.76
2023-04-12T08:39:15.519Z,22.77
2023-04-12T08:40:16.053Z,22.79
2023-04-12T08:41:15.777Z,22.76
2023-04-12T08:42:16.527Z,22.79
2023-04-12T08:43:15.601Z,22.85
2023-04-12T08:44:15.700Z,22.82
2023-04-12T08:45:15.632Z,22.83
2023-04-12T08:46:15.983Z,22.85
2023-04-12T08:47:15.666Z,22.86
2023-04-12T08:48:16.524Z,22.86
2023-04-12T08:49:15.701Z,22.86
2023-04-12T08:50:17.550Z,22.85
2023-04-12T08:51:15.731Z,22.85
2023-04-12T08:52:15.800Z,22.86
2023-04-12T08:53:15.734Z,22.89
2023-04-12T08:54:17.544Z,22.87
2023-04-12T08:55:15.642Z,22.87
2023-04-12T08:56:18.545Z,22.87
2023-04-12T08:57:15.556Z,22.89
2023-04-12T08:58:16.557Z,22.89
2023-04-12T08:59:15.455Z,22.86
2023-04-12T09:00:15.395Z,22.89
2023-04-12T09:01:15.425Z,22.89
2023-04-12T09:02:16.266Z,22.87
2023-04-12T09:03:15.469Z,22.87
2023-04-12T09:04:15.322Z,22.90
2023-04-12T09:05:15.321Z,22.89
2023-04-12T09:06:16.043Z,22.89
2023-04-12T09:07:15.096Z,22.89
2023-04-12T09:08:17.071Z,22.89
2023-04-12T09:09:14.996Z,22.90
2023-04-12T09:10:14.956Z,22.89
2023-04-12T09:11:14.902Z,22.90
2023-04-12T09:12:14.846Z,22.89
2023-04-12T09:13:14.807Z,22.89
2023-04-12T09:14:14.801Z,22.90
2023-04-12T09:15:14.803Z,22.80
2023-04-12T09:16:14.845Z,22.64
2023-04-12T09:17:14.809Z,22.66
2023-04-12T09:18:17.240Z,22.67
2023-04-12T09:19:14.765Z,22.74
2023-04-12T09:20:15.587Z,22.76
2023-04-12T09:21:14.681Z,22.74
2023-04-12T09:22:14.648Z,22.64
2023-04-12T09:23:14.626Z,22.74
2023-04-12T09:24:15.112Z,22.82
2023-04-12T09:25:14.561Z,22.82
2023-04-12T09:26:17.069Z,22.82
2023-04-12T09:27:14.477Z,22.80
2023-04-12T09:28:14.559Z,22.76
2023-04-12T09:29:14.442Z,22.77
2023-04-12T09:30:14.447Z,22.77
2023-04-12T09:31:14.413Z,22.76
2023-04-12T09:32:14.379Z,22.79
2023-04-12T09:33:14.359Z,22.79
2023-04-12T09:34:14.319Z,22.79
2023-04-12T09:35:14.280Z,22.80
2023-04-12T09:36:14.332Z,22.79
2023-04-12T09:37:14.250Z,22.79
2023-04-12T09:38:14.156Z,22.77
2023-04-12T09:39:14.108Z,22.79
2023-04-12T09:40:16.128Z,22.77
2023-04-12T09:41:14.043Z,22.79
2023-04-12T09:42:29.942Z,22.79
2023-04-12T09:43:14.955Z,22.83
2023-04-12T09:44:13.898Z,22.80
2023-04-12T09:45:13.867Z,22.83
2023-04-12T09:46:13.854Z,22.83
2023-04-12T09:47:15.591Z,22.82
2023-04-12T09:48:13.773Z,22.77
2023-04-12T09:49:13.714Z,22.76
2023-04-12T09:50:13.702Z,22.66
2023-04-12T09:51:13.709Z,22.58
2023-04-12T09:52:13.708Z,22.55
2023-04-12T09:53:13.699Z,22.56
2023-04-12T09:54:13.719Z,22.52
2023-04-12T09:55:13.675Z,22.50
2023-04-12T09:56:13.696Z,22.49
2023-04-12T09:57:13.621Z,22.46
2023-04-12T09:58:13.601Z,22.46
2023-04-12T09:59:13.577Z,22.50
2023-04-12T10:00:13.585Z,22.52
2023-04-12T10:01:14.653Z,22.53
2023-04-12T10:02:13.713Z,22.58
2023-04-12T10:03:13.696Z,22.56
2023-04-12T10:04:13.677Z,22.56
2023-04-12T10:05:13.474Z,22.58
2023-04-12T10:06:13.343Z,22.53
2023-04-12T10:07:14.874Z,22.60
2023-04-12T10:08:13.310Z,22.63
2023-04-12T10:09:15.074Z,22.69
2023-04-12T10:10:13.161Z,22.66
2023-04-12T10:11:13.134Z,22.70
2023-04-12T10:12:13.082Z,22.62
2023-04-12T10:13:13.054Z,22.69
2023-04-12T10:14:14.471Z,22.77
2023-04-12T10:15:13.015Z,22.79
2023-04-12T10:16:12.973Z,22.71
2023-04-12T10:17:12.890Z,22.74
2023-04-12T10:18:12.890Z,22.79
2023-04-12T10:19:12.827Z,22.80
2023-04-12T10:20:12.757Z,22.87
2023-04-12T10:21:12.721Z,22.89
2023-04-12T10:22:12.659Z,22.90
2023-04-12T10:23:12.625Z,22.91
2023-04-12T10:24:13.109Z,22.93
2023-04-12T10:25:12.502Z,22.93
2023-04-12T10:26:12.466Z,22.90
2023-04-12T10:27:12.427Z,22.90
2023-04-12T10:28:12.388Z,22.87
2023-04-12T10:29:12.313Z,22.90
2023-04-12T10:30:12.281Z,22.87
2023-04-12T10:31:12.267Z,22.89
2023-04-12T10:32:12.262Z,22.90
2023-04-12T10:33:12.189Z,22.90
2023-04-12T10:34:12.188Z,22.90
2023-04-12T10:35:12.035Z,22.91
2023-04-12T10:36:12.023Z,22.90
2023-04-12T10:37:11.998Z,22.90
2023-04-12T10:38:11.897Z,22.85
2023-04-12T10:39:11.843Z,22.89
2023-04-12T10:40:11.788Z,22.89
2023-04-12T10:41:11.780Z,22.89
2023-04-12T10:42:12.528Z,22.90
2023-04-12T10:43:11.661Z,22.91
2023-04-12T10:44:11.691Z,22.93
2023-04-12T10:45:11.556Z,22.94
2023-04-12T10:46:11.547Z,22.93
2023-04-12T10:47:12.136Z,22.91
2023-04-12T10:48:11.649Z,22.94
2023-04-12T10:49:11.410Z,22.96
2023-04-12T10:50:11.325Z,22.85
2023-04-12T10:51:11.280Z,22.85
2023-04-12T10:52:11.247Z,22.86
2023-04-12T10:53:11.276Z,22.86
2023-04-12T10:54:11.262Z,22.86
2023-04-12T10:55:11.339Z,22.89
2023-04-12T10:56:12.106Z,22.90
2023-04-12T10:57:11.289Z,22.89
2023-04-12T10:58:11.318Z,22.90
2023-04-12T10:59:11.320Z,22.93
2023-04-12T11:00:11.409Z,22.94
2023-04-12T11:01:11.543Z,22.85
2023-04-12T11:02:11.742Z,22.89
2023-04-12T11:03:11.415Z,22.87
2023-04-12T11:04:11.590Z,22.82
2023-04-12T11:05:11.691Z,22.90
2023-04-12T11:06:26.528Z,22.94
2023-04-12T11:07:12.459Z,22.93
2023-04-12T11:08:11.176Z,22.97
2023-04-12T11:09:11.192Z,22.97
2023-04-12T11:10:11.103Z,22.91
2023-04-12T11:11:11.054Z,23.00
2023-04-12T11:12:11.220Z,23.04
2023-04-12T11:13:10.932Z,23.07
2023-04-12T11:14:10.860Z,23.11
2023-04-12T11:15:10.790Z,23.13
2023-04-12T11:16:10.770Z,23.17
2023-04-12T11:17:10.847Z,23.18
2023-04-12T11:18:10.864Z,23.17
2023-04-12T11:19:10.757Z,23.19
2023-04-12T11:20:10.773Z,23.19
2023-04-12T11:21:10.729Z,23.18
2023-04-12T11:22:10.724Z,23.19
2023-04-12T11:23:11.455Z,23.19
2023-04-12T11:24:12.131Z,23.21
2023-04-12T11:25:10.780Z,23.17
2023-04-12T11:26:10.750Z,23.19
2023-04-12T11:27:10.729Z,23.18
2023-04-12T11:28:25.055Z,23.19
2023-04-12T11:29:11.664Z,23.15
2023-04-12T11:30:10.644Z,23.14
2023-04-12T11:31:10.573Z,23.13
2023-04-12T11:32:10.624Z,23.14
2023-04-12T11:33:10.481Z,23.14
2023-04-12T11:34:10.386Z,23.14
2023-04-12T11:35:10.335Z,23.15
2023-04-12T11:36:10.278Z,23.11
2023-04-12T11:37:10.229Z,23.14
2023-04-12T11:38:10.171Z,23.13
2023-04-12T11:39:10.175Z,23.14
2023-04-12T11:40:10.169Z,23.13
2023-04-12T11:41:10.171Z,23.11
2023-04-12T11:42:10.158Z,23.10
2023-04-12T11:43:10.167Z,23.11
2023-04-12T11:44:10.255Z,23.08
2023-04-12T11:45:16.968Z,23.13
2023-04-12T11:46:11.156Z,23.15
2023-04-12T11:47:10.217Z,23.14
2023-04-12T11:48:10.035Z,23.15
2023-04-12T11:49:09.940Z,23.15
2023-04-12T11:50:09.880Z,23.18
2023-04-12T11:51:11.607Z,23.15
2023-04-12T11:52:09.766Z,23.17
2023-04-12T11:53:09.724Z,23.17
2023-04-12T11:54:09.653Z,23.15
2023-04-12T11:55:09.605Z,23.15
2023-04-12T11:56:10.544Z,23.15
2023-04-12T11:57:09.505Z,23.17
2023-04-12T11:58:09.449Z,23.17
2023-04-12T11:59:09.418Z,23.18
2023-04-12T12:00:09.346Z,23.17
2023-04-12T12:01:09.295Z,23.19
2023-04-12T12:02:21.919Z,23.15
2023-04-12T12:03:10.334Z,23.18
2023-04-12T12:04:09.326Z,23.17
2023-04-12T12:05:09.197Z,23.15
2023-04-12T12:06:09.964Z,23.17
2023-04-12T12:07:09.212Z,23.13
2023-04-12T12:08:08.955Z,23.11
2023-04-12T12:09:08.879Z,23.10
2023-04-12T12:10:08.830Z,23.07
2023-04-12T12:11:09.069Z,23.03
2023-04-12T12:12:08.753Z,23.04
2023-04-12T12:13:08.750Z,23.05
2023-04-12T12:14:08.770Z,23.05
2023-04-12T12:15:08.760Z,23.04
2023-04-12T12:16:08.796Z,23.05
2023-04-12T12:17:08.779Z,23.05
2023-04-12T12:18:09.037Z,23.05
2023-04-12T12:19:08.791Z,23.08
2023-04-12T12:20:08.778Z,23.10
2023-04-12T12:21:08.777Z,23.08
2023-04-12T12:22:08.779Z,23.08
2023-04-12T12:23:08.780Z,23.10
2023-04-12T12:24:08.776Z,23.10
2023-04-12T12:25:08.793Z,23.08
2023-04-12T12:26:18.566Z,23.05
2023-04-12T12:27:09.770Z,23.05
2023-04-12T12:28:08.709Z,23.05
2023-04-12T12:29:08.625Z,23.04
2023-04-12T12:30:08.566Z,23.04
2023-04-12T12:31:08.585Z,23.04
2023-04-12T12:32:08.465Z,23.07
2023-04-12T12:33:08.507Z,23.05
2023-04-12T12:34:09.318Z,23.04
2023-04-12T12:35:08.312Z,23.03
2023-04-12T12:36:08.346Z,23.01
2023-04-12T12:37:08.328Z,23.03
2023-04-12T12:38:08.350Z,23.05
2023-04-12T12:39:08.362Z,23.00
2023-04-12T12:40:08.461Z,23.03
2023-04-12T12:41:08.348Z,23.03
2023-04-12T12:42:08.359Z,22.96
2023-04-12T12:43:08.368Z,22.97
2023-04-12T12:44:08.602Z,22.96
2023-04-12T12:45:08.394Z,22.93
2023-04-12T12:46:08.426Z,22.93
2023-04-12T12:47:14.096Z,22.96
2023-04-12T12:48:09.463Z,22.98
2023-04-12T12:49:08.329Z,23.03
2023-04-12T12:50:08.288Z,23.04
2023-04-12T12:51:08.205Z,23.10
2023-04-12T12:52:08.155Z,23.10